Time;durP1;ratioP1;P1;durP2;ratioP2;P2;SDS_P1;SDS_P2;PMS_P1;PMS_P2;Temp;Humidity;BMP_temperature;BMP_pressure;BME280_temperature;BME280_humidity;BME280_pressure;Samples;Min_cycle;Max_cycle;Signal;HPM_P1;HPM_P2
2020/12/27 00:02:17;;;;;;;12.27;9.15;;;4.10;99.90;;;;;;5071608;28;20260;-46
2020/12/27 00:04:43;;;;;;;11.32;8.07;;;4.00;99.90;;;;;;5071870;28;20624;-45
2020/12/27 00:07:12;;;;;;;10.55;8.70;;;4.10;99.90;;;;;;5072615;28;20241;-45
2020/12/27 00:09:39;;;;;;;10.90;8.30;;;4.20;99.90;;;;;;5073096;28;20725;-45
2020/12/27 00:12:06;;;;;;;11.18;8.00;;;4.00;99.90;;;;;;5072296;28;20708;-45
2020/12/27 00:14:34;;;;;;;10.60;8.25;;;4.10;99.90;;;;;;5071675;28;20191;-45
2020/12/27 00:17:03;;;;;;;10.50;8.02;;;4.00;99.90;;;;;;5071943;28;20244;-46
2020/12/27 00:19:30;;;;;;;11.88;8.55;;;4.20;99.90;;;;;;5072170;28;20188;-46
2020/12/27 00:21:56;;;;;;;11.60;8.18;;;4.00;99.90;;;;;;5071858;28;20247;-45
2020/12/27 00:24:23;;;;;;;13.10;8.50;;;4.00;99.90;;;;;;5071252;28;20215;-46
2020/12/27 00:26:50;;;;;;;10.40;8.18;;;4.00;99.90;;;;;;5071572;28;20612;-46
2020/12/27 00:29:17;;;;;;;11.65;8.55;;;3.90;99.90;;;;;;5071698;28;20187;-46
2020/12/27 00:31:44;;;;;;;10.70;7.57;;;3.60;99.90;;;;;;5071451;28;20191;-46
2020/12/27 00:34:11;;;;;;;11.82;8.15;;;4.20;99.90;;;;;;5071381;28;20260;-46
2020/12/27 00:36:37;;;;;;;8.95;7.38;;;3.80;99.90;;;;;;5071459;28;20203;-46
2020/12/27 00:39:06;;;;;;;9.18;7.25;;;3.70;99.90;;;;;;5071678;28;20202;-46
2020/12/27 00:41:34;;;;;;;13.10;8.15;;;3.90;99.90;;;;;;5071307;28;20245;-46
2020/12/27 00:44:01;;;;;;;11.25;8.38;;;3.90;99.90;;;;;;5071186;28;20257;-46
2020/12/27 00:46:28;;;;;;;13.05;8.32;;;3.90;99.90;;;;;;5069984;28;20371;-46
2020/12/27 00:48:56;;;;;;;12.60;8.63;;;3.60;99.90;;;;;;5071396;28;20199;-46
2020/12/27 00:51:23;;;;;;;13.80;8.98;;;3.80;99.90;;;;;;5070047;28;20613;-46
2020/12/27 00:53:50;;;;;;;10.18;7.03;;;3.50;99.90;;;;;;5070910;28;20231;-46
2020/12/27 00:56:17;;;;;;;11.20;8.23;;;3.70;99.90;;;;;;5069832;28;20203;-46
2020/12/27 00:58:56;;;;;;;11.95;8.80;;;3.70;99.90;;;;;;5070139;28;20285;-46
2020/12/27 01:01:22;;;;;;;11.43;7.95;;;3.60;99.90;;;;;;5070226;28;20714;-46
2020/12/27 01:03:49;;;;;;;9.45;7.68;;;3.10;99.90;;;;;;5069714;28;20426;-46
2020/12/27 01:06:23;;;;;;;12.07;8.60;;;3.60;99.90;;;;;;5070144;28;20280;-46
2020/12/27 01:08:53;;;;;;;9.68;8.52;;;3.70;99.90;;;;;;5069790;28;20202;-46
2020/12/27 01:11:20;;;;;;;12.60;8.30;;;3.40;99.90;;;;;;5071584;28;20386;-46
2020/12/27 01:13:46;;;;;;;12.07;8.38;;;3.90;99.90;;;;;;5069918;28;20227;-46
2020/12/27 01:16:14;;;;;;;11.05;7.97;;;3.50;99.90;;;;;;5071951;28;20196;-46
2020/12/27 01:18:42;;;;;;;10.98;8.43;;;3.50;99.90;;;;;;5070306;28;20207;-46
2020/12/27 01:21:09;;;;;;;10.73;8.30;;;3.90;99.90;;;;;;5069695;28;20581;-46
2020/12/27 01:23:37;;;;;;;12.70;8.10;;;3.90;99.90;;;;;;5069518;28;20219;-46
2020/12/27 01:26:04;;;;;;;11.00;8.18;;;4.00;99.90;;;;;;5069828;28;20261;-46
2020/12/27 01:28:31;;;;;;;10.75;8.60;;;3.40;99.90;;;;;;5069774;28;20210;-45
2020/12/27 01:31:04;;;;;;;9.85;7.90;;;3.90;99.90;;;;;;5069840;28;20600;-47
2020/12/27 01:33:38;;;;;;;10.00;7.35;;;3.90;99.90;;;;;;5070930;28;20222;-46
2020/12/27 01:36:04;;;;;;;11.50;8.30;;;3.60;99.90;;;;;;5073398;28;20261;-46
2020/12/27 01:38:32;;;;;;;10.13;7.85;;;3.90;99.90;;;;;;5073506;28;20202;-46
2020/12/27 01:41:04;;;;;;;9.40;7.90;;;3.70;99.90;;;;;;5069792;28;20291;-46
2020/12/27 01:43:37;;;;;;;10.32;8.30;;;3.80;99.90;;;;;;5054182;28;20231;-46
2020/12/27 01:46:05;;;;;;;9.88;8.38;;;3.80;99.90;;;;;;5053061;28;20224;-45
2020/12/27 01:48:32;;;;;;;8.55;7.65;;;2.90;99.90;;;;;;5054582;28;20196;-45
2020/12/27 01:51:03;;;;;;;10.18;7.28;;;3.80;99.90;;;;;;5053093;28;20668;-46
2020/12/27 01:53:44;;;;;;;10.98;8.80;;;3.40;99.90;;;;;;5052637;28;20278;-46
2020/12/27 01:56:28;;;;;;;10.10;7.40;;;2.90;99.90;;;;;;5053144;28;20748;-46
2020/12/27 01:59:02;;;;;;;9.75;8.00;;;3.60;99.90;;;;;;5053095;28;20203;-45
2020/12/27 02:01:30;;;;;;;10.85;7.13;;;3.40;99.90;;;;;;5052893;28;20231;-46
2020/12/27 02:04:05;;;;;;;9.52;7.47;;;3.30;99.90;;;;;;5069234;28;20286;-45
2020/12/27 02:06:41;;;;;;;9.63;8.30;;;2.80;99.90;;;;;;5052917;28;20224;-45
2020/12/27 02:09:20;;;;;;;8.88;7.38;;;3.40;99.90;;;;;;5052672;28;20699;-45
2020/12/27 02:12:04;;;;;;;8.90;7.35;;;3.50;99.90;;;;;;5052486;28;20208;-45
2020/12/27 02:14:35;;;;;;;10.60;7.50;;;2.90;99.90;;;;;;5052152;28;20192;-44
2020/12/27 02:17:03;;;;;;;9.60;7.72;;;3.40;99.90;;;;;;5052613;28;20306;-44
2020/12/27 02:19:50;;;;;;;8.23;7.35;;;3.40;99.90;;;;;;5046284;28;20212;-44
2020/12/27 02:22:30;;;;;;;11.75;8.32;;;3.40;99.90;;;;;;5068773;28;20223;-44
2020/12/27 02:25:29;;;;;;;7.97;6.70;;;3.50;99.90;;;;;;5044854;28;20362;-45
2020/12/27 02:28:07;;;;;;;8.73;7.47;;;3.40;99.90;;;;;;5052521;28;20665;-45
2020/12/27 02:30:34;;;;;;;9.32;6.68;;;3.40;99.90;;;;;;5052276;28;20215;-45
2020/12/27 02:33:04;;;;;;;9.90;7.45;;;3.40;99.90;;;;;;5052108;28;20230;-45
2020/12/27 02:35:31;;;;;;;8.02;7.10;;;3.30;99.90;;;;;;5054852;28;20699;-45
2020/12/27 02:38:00;;;;;;;9.55;7.60;;;3.40;99.90;;;;;;5072644;28;20587;-45
2020/12/27 02:40:27;;;;;;;7.80;6.82;;;3.30;99.90;;;;;;5068784;28;20673;-45
2020/12/27 02:43:17;;;;;;;9.10;7.03;;;3.30;99.90;;;;;;5053469;28;20615;-45
2020/12/27 02:45:47;;;;;;;10.23;8.15;;;3.60;99.90;;;;;;5051216;28;20675;-45
2020/12/27 02:48:33;;;;;;;7.05;6.10;;;3.40;99.90;;;;;;5053466;28;20687;-44
2020/12/27 02:51:03;;;;;;;8.50;6.45;;;3.20;99.90;;;;;;5053495;28;20211;-45
2020/12/27 02:53:29;;;;;;;10.18;7.65;;;2.90;99.90;;;;;;5052996;28;20215;-44
2020/12/27 02:55:56;;;;;;;8.52;6.55;;;3.30;99.90;;;;;;5051841;28;20188;-45
2020/12/27 02:58:24;;;;;;;8.68;7.13;;;3.50;99.90;;;;;;5051791;28;20702;-46
2020/12/27 03:00:52;;;;;;;6.55;5.90;;;2.80;99.90;;;;;;5053033;28;20211;-45
2020/12/27 03:03:37;;;;;;;7.43;6.15;;;3.40;99.90;;;;;;5052941;28;20659;-45
2020/12/27 03:06:19;;;;;;;9.80;6.80;;;3.40;99.90;;;;;;5051672;28;20238;-45
2020/12/27 03:08:54;;;;;;;8.90;7.07;;;3.50;99.90;;;;;;5051780;28;20210;-46
2020/12/27 03:11:39;;;;;;;8.05;6.30;;;3.50;99.90;;;;;;5052552;28;20206;-44
2020/12/27 03:14:09;;;;;;;7.53;6.50;;;3.50;99.90;;;;;;5087638;22;20266;-50
2020/12/27 03:16:47;;;;;;;7.32;6.50;;;3.30;99.90;;;;;;5051552;28;20207;-50
2020/12/27 03:19:34;;;;;;;7.72;5.75;;;3.50;99.90;;;;;;5051526;28;20291;-50
2020/12/27 03:22:21;;;;;;;7.78;6.35;;;3.30;99.90;;;;;;5051178;28;20281;-49
2020/12/27 03:25:01;;;;;;;7.13;5.47;;;3.40;99.90;;;;;;5052976;28;20247;-50
2020/12/27 03:27:28;;;;;;;7.95;6.20;;;3.30;99.90;;;;;;5051429;28;20207;-50
2020/12/27 03:29:56;;;;;;;9.65;5.88;;;3.40;99.90;;;;;;5052822;28;20215;-49
2020/12/27 03:32:29;;;;;;;7.70;5.60;;;3.50;99.90;;;;;;5067548;28;20227;-49
2020/12/27 03:34:56;;;;;;;10.70;5.80;;;3.40;99.90;;;;;;5052716;28;20521;-49
2020/12/27 03:37:23;;;;;;;6.88;5.45;;;3.40;99.90;;;;;;5052226;28;20572;-51
2020/12/27 03:40:16;;;;;;;7.53;5.50;;;3.60;99.90;;;;;;5052534;28;20294;-50
2020/12/27 03:43:00;;;;;;;7.80;5.68;;;3.40;99.90;;;;;;5052372;28;20281;-50
2020/12/27 03:45:29;;;;;;;6.57;5.88;;;3.30;99.90;;;;;;5050956;28;20235;-50
2020/12/27 03:48:01;;;;;;;6.40;5.60;;;3.50;99.90;;;;;;5052683;28;20196;-51
2020/12/27 03:50:54;;;;;;;63.17;24.08;;;3.50;99.90;;;;;;5050877;28;20204;-51
2020/12/27 03:53:22;;;;;;;7.65;5.18;;;3.40;99.90;;;;;;5050419;28;20224;-51
2020/12/27 03:56:14;;;;;;;6.50;5.35;;;3.50;99.90;;;;;;5050511;28;20203;-51
2020/12/27 03:59:13;;;;;;;9.95;6.15;;;3.30;99.90;;;;;;5045383;28;20200;-51
2020/12/27 04:01:47;;;;;;;6.13;5.30;;;3.60;99.90;;;;;;5052233;28;20212;-51
2020/12/27 04:04:14;;;;;;;7.32;5.75;;;3.30;99.90;;;;;;5067049;28;20645;-51
2020/12/27 04:06:41;;;;;;;7.38;5.75;;;3.30;99.90;;;;;;5050622;28;20247;-51
2020/12/27 04:09:19;;;;;;;6.32;4.82;;;3.50;99.90;;;;;;5050634;28;20275;-50
2020/12/27 04:11:45;;;;;;;5.70;5.10;;;3.70;99.90;;;;;;5050686;28;20196;-50
2020/12/27 04:14:12;;;;;;;6.85;5.30;;;3.60;99.90;;;;;;5050615;28;20718;-50
2020/12/27 04:16:39;;;;;;;6.57;5.55;;;3.40;99.90;;;;;;5067367;28;20188;-51
2020/12/27 04:19:07;;;;;;;7.13;6.38;;;2.80;99.90;;;;;;5067290;28;20207;-50
2020/12/27 04:21:54;;;;;;;6.95;6.22;;;3.40;99.90;;;;;;5051579;28;20208;-50
2020/12/27 04:24:43;;;;;;;10.80;5.55;;;3.30;99.90;;;;;;5051857;28;20211;-50
2020/12/27 04:27:13;;;;;;;7.45;6.30;;;3.40;99.90;;;;;;5050504;28;20262;-50
2020/12/27 04:29:39;;;;;;;7.57;5.15;;;3.40;99.90;;;;;;5050362;28;20207;-51
2020/12/27 04:32:07;;;;;;;10.10;5.85;;;3.60;99.90;;;;;;5050440;28;20204;-51
2020/12/27 04:34:55;;;;;;;9.98;5.95;;;3.40;99.90;;;;;;5051242;28;20200;-51
2020/12/27 04:37:22;;;;;;;10.85;5.82;;;3.40;99.90;;;;;;5050323;28;20664;-51
2020/12/27 04:39:58;;;;;;;8.57;5.82;;;3.40;99.90;;;;;;5050346;28;20203;-50
2020/12/27 04:42:25;;;;;;;8.30;6.18;;;3.40;99.90;;;;;;5051136;28;20219;-50
2020/12/27 04:44:57;;;;;;;8.10;6.70;;;3.30;99.90;;;;;;5050088;28;20215;-52
2020/12/27 04:47:44;;;;;;;9.70;6.00;;;3.40;99.90;;;;;;5051455;28;20203;-50
2020/12/27 04:50:28;;;;;;;8.45;6.07;;;3.40;99.90;;;;;;5050276;28;20211;-51
2020/12/27 04:52:55;;;;;;;9.07;5.80;;;3.60;99.90;;;;;;5049682;28;20236;-50
2020/12/27 04:55:26;;;;;;;8.35;5.70;;;2.70;99.90;;;;;;5050243;28;20206;-49
2020/12/27 04:58:29;;;;;;;6.53;5.80;;;3.30;99.90;;;;;;5047033;28;20200;-50
2020/12/27 05:01:10;;;;;;;10.93;6.15;;;3.40;99.90;;;;;;5050800;28;20676;-50
2020/12/27 05:03:56;;;;;;;8.50;6.32;;;3.30;99.90;;;;;;5052306;28;20262;-49
2020/12/27 05:06:26;;;;;;;8.23;5.97;;;3.50;99.90;;;;;;5050603;28;20262;-50
2020/12/27 05:08:58;;;;;;;9.02;6.40;;;3.40;99.90;;;;;;5052602;28;20204;-50
2020/12/27 05:11:25;;;;;;;8.48;5.68;;;3.30;99.90;;;;;;5054144;28;20660;-50
2020/12/27 05:13:58;;;;;;;8.20;6.45;;;3.30;99.90;;;;;;5053772;28;20227;-50
2020/12/27 05:16:33;;;;;;;6.97;5.50;;;3.30;99.90;;;;;;5053971;28;20286;-50
2020/12/27 05:19:02;;;;;;;7.40;5.93;;;3.20;99.90;;;;;;5053832;28;20204;-50
2020/12/27 05:21:37;;;;;;;10.68;6.90;;;3.30;99.90;;;;;;5053868;28;20231;-50
2020/12/27 05:24:08;;;;;;;7.80;6.07;;;3.80;99.90;;;;;;5070275;28;20215;-50
2020/12/27 05:26:47;;;;;;;7.60;5.90;;;3.40;99.90;;;;;;5053499;28;20734;-50
2020/12/27 05:29:43;;;;;;;8.15;5.80;;;3.20;99.90;;;;;;5053629;28;20208;-49
2020/12/27 05:32:30;;;;;;;10.57;6.00;;;3.30;99.90;;;;;;5055171;28;20591;-49
2020/12/27 05:35:35;;;;;;;9.88;7.05;;;3.30;99.90;;;;;;5029519;28;20201;-50
2020/12/27 05:38:11;;;;;;;8.85;6.70;;;3.30;99.90;;;;;;5012754;28;20212;-50
2020/12/27 05:41:09;;;;;;;7.50;5.85;;;3.50;99.90;;;;;;5006939;28;20212;-51
2020/12/27 05:43:46;;;;;;;9.18;6.38;;;3.20;99.90;;;;;;5033218;28;20231;-50
2020/12/27 05:46:18;;;;;;;11.63;7.30;;;3.40;99.90;;;;;;5034581;28;20300;-50
2020/12/27 05:48:46;;;;;;;7.22;5.70;;;3.50;99.90;;;;;;5033519;28;20207;-50
2020/12/27 05:51:20;;;;;;;7.80;7.00;;;3.30;99.90;;;;;;5033259;28;20204;-51
2020/12/27 05:53:51;;;;;;;15.88;7.53;;;3.20;99.90;;;;;;5032940;28;20704;-51
2020/12/27 05:56:21;;;;;;;9.50;6.57;;;3.00;99.90;;;;;;5033266;28;20653;-51
2020/12/27 05:58:54;;;;;;;9.40;6.43;;;3.10;99.90;;;;;;5033384;28;20208;-50
2020/12/27 06:01:27;;;;;;;8.57;6.90;;;3.30;99.90;;;;;;5033165;28;20200;-50
2020/12/27 06:04:02;;;;;;;8.75;6.57;;;3.10;99.90;;;;;;5032611;28;20241;-51
2020/12/27 06:07:05;;;;;;;10.30;6.65;;;3.00;99.90;;;;;;5034303;28;20243;-50
2020/12/27 06:10:00;;;;;;;6.35;5.50;;;3.20;99.90;;;;;;5033004;28;20288;-50
2020/12/27 06:12:58;;;;;;;7.47;5.70;;;3.10;99.90;;;;;;5032736;28;20704;-50
2020/12/27 06:15:29;;;;;;;8.00;6.45;;;3.00;99.90;;;;;;5032999;28;20201;-50
2020/12/27 06:18:16;;;;;;;5.80;5.10;;;3.00;99.90;;;;;;5034657;28;20207;-50
2020/12/27 06:21:08;;;;;;;7.47;5.97;;;2.90;99.90;;;;;;5034364;28;20699;-50
2020/12/27 06:23:39;;;;;;;7.32;5.90;;;3.10;99.90;;;;;;5032359;28;20240;-50
2020/12/27 06:26:08;;;;;;;8.40;6.05;;;3.10;99.90;;;;;;5032649;28;20224;-50
2020/12/27 06:28:40;;;;;;;8.38;6.50;;;2.70;99.90;;;;;;5032607;28;20197;-49
2020/12/27 06:31:17;;;;;;;9.63;6.18;;;2.90;99.90;;;;;;5032977;28;20255;-51
2020/12/27 06:34:00;;;;;;;9.35;5.97;;;3.00;99.90;;;;;;5032269;28;20382;-50
2020/12/27 06:36:50;;;;;;;7.30;5.47;;;3.00;99.90;;;;;;5045126;28;20450;-50
2020/12/27 06:39:25;;;;;;;8.38;5.75;;;2.90;99.90;;;;;;5052338;28;20269;-50
2020/12/27 06:42:08;;;;;;;7.03;6.05;;;3.00;99.90;;;;;;5048625;28;20200;-51
2020/12/27 06:44:50;;;;;;;9.25;5.90;;;2.90;99.90;;;;;;5032195;28;20209;-49
2020/12/27 06:47:46;;;;;;;7.90;5.55;;;2.80;99.90;;;;;;5033918;28;20250;-50
2020/12/27 06:50:15;;;;;;;9.40;5.60;;;2.90;99.90;;;;;;5032203;28;20292;-49
2020/12/27 06:52:44;;;;;;;8.70;5.90;;;2.80;99.90;;;;;;5031786;28;20228;-49
2020/12/27 06:55:36;;;;;;;9.85;5.22;;;2.80;99.90;;;;;;5033270;28;20670;-49
2020/12/27 06:58:19;;;;;;;7.95;5.30;;;2.90;99.90;;;;;;5032156;28;20196;-49
2020/12/27 07:00:47;;;;;;;7.78;5.38;;;3.10;99.90;;;;;;5032078;28;20208;-49
2020/12/27 07:03:22;;;;;;;9.25;5.32;;;3.00;99.90;;;;;;5031565;28;20290;-49
2020/12/27 07:05:50;;;;;;;8.20;4.63;;;3.00;99.90;;;;;;5033272;28;20223;-50
2020/12/27 07:08:38;;;;;;;9.20;5.30;;;2.90;99.90;;;;;;5033004;28;20688;-50
2020/12/27 07:11:07;;;;;;;6.70;4.25;;;3.00;99.90;;;;;;5032832;28;20250;-51
2020/12/27 07:13:41;;;;;;;9.00;5.50;;;2.90;99.90;;;;;;5031479;28;20240;-50
2020/12/27 07:16:12;;;;;;;6.18;5.28;;;2.90;99.90;;;;;;5033061;28;20560;-50
2020/12/27 07:18:38;;;;;;;6.68;5.10;;;2.90;99.90;;;;;;5033061;28;20189;-48
2020/12/27 07:21:11;;;;;;;7.00;4.43;;;3.10;99.90;;;;;;5032959;28;20193;-49
2020/12/27 07:23:44;;;;;;;7.28;4.93;;;2.90;99.90;;;;;;5032616;28;20224;-49
2020/12/27 07:26:12;;;;;;;9.85;4.57;;;2.90;99.90;;;;;;5033084;28;20217;-49
2020/12/27 07:28:38;;;;;;;8.02;4.40;;;2.80;99.90;;;;;;5033029;28;20276;-48
2020/12/27 07:31:06;;;;;;;4.72;4.22;;;3.20;99.90;;;;;;5032394;28;20196;-48
2020/12/27 07:33:34;;;;;;;4.93;3.33;;;3.10;99.90;;;;;;5032901;28;20229;-49
2020/12/27 07:36:03;;;;;;;4.70;3.80;;;3.10;99.90;;;;;;5039645;28;20188;-49
2020/12/27 07:38:59;;;;;;;5.95;4.40;;;2.90;99.90;;;;;;5053014;28;20256;-48
2020/12/27 07:41:27;;;;;;;5.38;3.70;;;3.00;99.90;;;;;;5052922;28;20340;-48
2020/12/27 07:43:55;;;;;;;5.60;3.45;;;2.90;99.90;;;;;;5052186;28;20239;-49
2020/12/27 07:46:23;;;;;;;6.13;4.13;;;3.10;99.90;;;;;;5052166;28;20240;-49
2020/12/27 07:48:50;;;;;;;7.10;4.78;;;2.90;99.90;;;;;;5052259;28;20196;-49
2020/12/27 07:51:18;;;;;;;5.03;3.85;;;2.90;99.90;;;;;;5052465;28;20195;-50
2020/12/27 07:53:46;;;;;;;6.47;3.75;;;3.10;99.90;;;;;;5051886;28;20591;-51
2020/12/27 07:56:20;;;;;;;4.25;3.50;;;2.90;99.90;;;;;;5052159;28;20188;-50
2020/12/27 07:58:51;;;;;;;6.20;3.95;;;3.00;99.90;;;;;;5067661;28;20233;-51
2020/12/27 08:01:23;;;;;;;6.30;3.40;;;2.90;99.90;;;;;;5052223;28;20192;-50
2020/12/27 08:03:51;;;;;;;6.20;3.70;;;3.10;99.90;;;;;;5050099;28;20688;-50
2020/12/27 08:06:18;;;;;;;5.57;3.90;;;3.00;99.90;;;;;;5052115;28;20745;-51
2020/12/27 08:08:46;;;;;;;6.13;2.80;;;2.30;99.90;;;;;;5051934;28;20196;-51
2020/12/27 08:11:20;;;;;;;7.25;3.85;;;3.00;99.90;;;;;;5051981;28;20553;-49
2020/12/27 08:13:54;;;;;;;4.63;3.50;;;2.90;99.90;;;;;;5051485;28;20227;-49
2020/12/27 08:16:22;;;;;;;4.43;3.47;;;3.00;99.90;;;;;;5051858;28;20195;-49
2020/12/27 08:19:01;;;;;;;4.38;3.30;;;3.20;99.90;;;;;;5050784;28;20283;-49
2020/12/27 08:21:28;;;;;;;3.95;3.53;;;2.90;99.90;;;;;;5052123;28;20627;-50
2020/12/27 08:23:58;;;;;;;5.18;3.03;;;2.90;99.90;;;;;;5051722;28;20214;-50
2020/12/27 08:26:25;;;;;;;8.80;4.72;;;2.90;99.90;;;;;;5052319;28;20215;-50
2020/12/27 08:28:52;;;;;;;12.27;5.00;;;3.00;99.90;;;;;;5052219;28;20210;-50
2020/12/27 08:31:28;;;;;;;7.05;4.00;;;3.10;99.90;;;;;;5051876;28;20564;-49
2020/12/27 08:34:09;;;;;;;4.70;3.30;;;3.00;99.60;;;;;;5051436;28;20216;-49
2020/12/27 08:36:38;;;;;;;11.15;3.97;;;3.00;99.80;;;;;;5051538;28;20199;-50
2020/12/27 08:39:13;;;;;;;6.40;4.03;;;3.20;99.80;;;;;;5051929;28;20199;-50
2020/12/27 08:41:44;;;;;;;4.55;2.92;;;3.10;99.50;;;;;;5052209;28;20273;-50
2020/12/27 08:44:34;;;;;;;6.95;3.92;;;3.10;99.20;;;;;;5053001;28;20563;-50
2020/12/27 08:47:04;;;;;;;6.55;3.20;;;3.00;98.90;;;;;;5055829;28;20211;-50
2020/12/27 08:49:48;;;;;;;6.60;4.18;;;2.80;98.80;;;;;;5056139;28;20192;-50
2020/12/27 08:52:19;;;;;;;5.03;3.33;;;3.00;98.50;;;;;;5055809;28;20192;-50
2020/12/27 08:54:50;;;;;;;6.60;3.63;;;3.30;98.70;;;;;;5055960;28;20188;-50
2020/12/27 08:57:18;;;;;;;3.83;3.13;;;3.20;98.60;;;;;;5055822;28;20548;-50
2020/12/27 09:00:08;;;;;;;7.43;4.10;;;3.30;98.30;;;;;;5054289;28;20255;-50
2020/12/27 09:02:37;;;;;;;6.22;3.20;;;3.10;98.50;;;;;;5055287;28;20265;-50
2020/12/27 09:05:08;;;;;;;5.22;3.45;;;3.20;98.00;;;;;;5055136;28;20251;-49
2020/12/27 09:07:37;;;;;;;5.68;3.25;;;3.20;98.30;;;;;;5055351;28;20188;-49
2020/12/27 09:10:13;;;;;;;7.70;3.10;;;3.10;98.00;;;;;;5055973;28;20227;-49
2020/12/27 09:12:55;;;;;;;6.20;3.25;;;3.40;98.00;;;;;;5055934;28;20203;-50
2020/12/27 09:15:26;;;;;;;3.80;3.13;;;3.20;97.60;;;;;;5055865;28;20195;-51
2020/12/27 09:17:55;;;;;;;4.47;3.88;;;3.40;97.80;;;;;;5056171;28;20648;-51
2020/12/27 09:20:23;;;;;;;6.53;4.13;;;3.10;97.80;;;;;;5055727;28;20200;-51
2020/12/27 09:22:50;;;;;;;5.95;3.72;;;3.60;97.40;;;;;;5055717;28;20703;-51
2020/12/27 09:25:18;;;;;;;9.50;3.15;;;3.50;97.70;;;;;;5055534;28;20431;-51
2020/12/27 09:27:45;;;;;;;6.53;3.33;;;3.40;97.70;;;;;;5055193;28;20291;-51
2020/12/27 09:30:15;;;;;;;4.68;3.60;;;3.30;97.40;;;;;;5055887;28;20196;-51
2020/12/27 09:32:42;;;;;;;12.25;4.03;;;3.40;97.30;;;;;;5055748;28;20572;-50
2020/12/27 09:35:16;;;;;;;3.85;3.28;;;3.30;97.20;;;;;;5055559;28;20199;-51
2020/12/27 09:37:42;;;;;;;5.55;4.22;;;3.40;97.20;;;;;;5036235;28;20548;-51
2020/12/27 09:40:09;;;;;;;9.00;4.00;;;3.50;97.30;;;;;;5037156;28;20197;-51
2020/12/27 09:42:36;;;;;;;4.70;3.30;;;3.10;97.00;;;;;;5055303;28;20692;-50
2020/12/27 09:45:17;;;;;;;7.57;4.20;;;3.80;97.30;;;;;;5055670;28;20223;-51
2020/12/27 09:47:54;;;;;;;4.63;3.63;;;3.70;97.20;;;;;;5056470;28;20203;-51
2020/12/27 09:50:30;;;;;;;4.63;3.60;;;3.50;96.80;;;;;;5058074;28;20200;-51
2020/12/27 09:52:57;;;;;;;6.95;4.07;;;2.90;96.40;;;;;;5056452;28;20618;-50
2020/12/27 09:55:24;;;;;;;5.30;3.67;;;3.60;96.70;;;;;;5055216;28;20250;-51
2020/12/27 09:57:51;;;;;;;5.80;4.25;;;3.60;97.00;;;;;;5055166;28;20196;-51
2020/12/27 10:00:17;;;;;;;5.63;3.50;;;3.50;96.90;;;;;;5055887;28;20249;-53
2020/12/27 10:02:44;;;;;;;5.18;3.50;;;3.60;96.40;;;;;;5055332;28;20576;-51
2020/12/27 10:05:11;;;;;;;7.13;4.63;;;3.50;96.40;;;;;;5054832;28;20200;-50
2020/12/27 10:07:39;;;;;;;6.55;4.10;;;3.50;96.10;;;;;;5070307;28;20200;-51
2020/12/27 10:10:07;;;;;;;4.78;3.90;;;3.60;96.10;;;;;;5054671;28;20680;-51
2020/12/27 10:12:34;;;;;;;8.93;4.50;;;3.40;96.70;;;;;;5053896;28;20224;-51
2020/12/27 10:15:00;;;;;;;4.97;3.58;;;3.90;96.70;;;;;;5054364;28;20567;-51
2020/12/27 10:17:27;;;;;;;4.90;3.97;;;3.70;96.20;;;;;;5054324;28;20188;-50
2020/12/27 10:19:54;;;;;;;5.35;3.63;;;3.00;95.90;;;;;;5054262;28;20549;-51
2020/12/27 10:22:20;;;;;;;6.78;4.85;;;3.80;96.10;;;;;;5053849;28;20634;-50
2020/12/27 10:24:48;;;;;;;5.35;4.55;;;3.70;96.50;;;;;;5054113;28;20199;-51
2020/12/27 10:27:14;;;;;;;7.70;4.45;;;4.10;96.50;;;;;;5053941;28;20222;-50
2020/12/27 10:29:41;;;;;;;5.18;3.80;;;3.90;95.90;;;;;;5053720;28;20200;-50
2020/12/27 10:32:08;;;;;;;4.68;4.20;;;3.40;96.00;;;;;;5052605;28;20196;-51
2020/12/27 10:34:35;;;;;;;6.18;4.75;;;3.60;96.10;;;;;;5053598;28;20199;-50
2020/12/27 10:37:03;;;;;;;4.70;3.60;;;3.70;96.30;;;;;;5054125;28;20205;-51
2020/12/27 10:39:30;;;;;;;6.43;4.00;;;3.80;95.70;;;;;;5053996;28;20199;-51
2020/12/27 10:41:58;;;;;;;5.65;3.78;;;3.80;96.20;;;;;;5054310;28;20204;-49
2020/12/27 10:44:26;;;;;;;6.60;4.20;;;3.90;96.20;;;;;;5053633;28;20227;-50
2020/12/27 10:46:52;;;;;;;8.40;5.25;;;3.70;96.00;;;;;;5053535;28;20652;-50
2020/12/27 10:49:20;;;;;;;4.88;4.07;;;3.70;95.50;;;;;;5054547;28;20208;-50
2020/12/27 10:51:47;;;;;;;6.35;4.10;;;3.90;95.60;;;;;;5053349;28;20612;-52
2020/12/27 10:54:14;;;;;;;5.03;3.70;;;3.60;95.20;;;;;;5052555;28;20228;-51
2020/12/27 10:56:42;;;;;;;4.25;3.70;;;3.90;95.10;;;;;;5054411;28;20188;-50
2020/12/27 10:59:10;;;;;;;5.03;3.95;;;3.70;95.30;;;;;;5053572;28;20196;-51
2020/12/27 11:01:41;;;;;;;5.57;4.15;;;3.60;94.70;;;;;;5053657;28;20598;-51
2020/12/27 11:04:08;;;;;;;5.70;4.93;;;3.90;94.80;;;;;;5052566;28;20231;-50
2020/12/27 11:06:34;;;;;;;6.78;4.18;;;4.00;94.90;;;;;;5052420;28;20208;-51
2020/12/27 11:09:05;;;;;;;5.45;3.60;;;4.00;94.60;;;;;;5054643;28;20204;-51
2020/12/27 11:11:31;;;;;;;6.18;3.90;;;4.00;94.50;;;;;;5053711;28;20607;-50
2020/12/27 11:13:58;;;;;;;5.70;3.63;;;3.40;94.20;;;;;;5052608;28;20708;-51
2020/12/27 11:16:25;;;;;;;5.40;3.92;;;4.00;94.00;;;;;;5053121;28;20625;-51
2020/12/27 11:18:52;;;;;;;4.72;4.13;;;4.20;94.50;;;;;;5052973;28;20583;-51
2020/12/27 11:21:18;;;;;;;5.65;4.07;;;3.80;94.10;;;;;;5052886;28;20188;-52
2020/12/27 11:23:45;;;;;;;5.35;3.95;;;4.00;94.50;;;;;;5052702;28;20323;-51
2020/12/27 11:26:11;;;;;;;4.50;3.70;;;4.20;94.30;;;;;;5053326;28;20215;-51
2020/12/27 11:28:38;;;;;;;4.90;3.58;;;4.30;94.40;;;;;;5053419;28;20195;-50
2020/12/27 11:31:04;;;;;;;10.05;5.80;;;3.80;93.70;;;;;;5053047;28;20198;-51
2020/12/27 11:33:32;;;;;;;6.80;4.47;;;3.80;94.20;;;;;;5052082;28;20228;-51
2020/12/27 11:35:58;;;;;;;6.22;3.70;;;4.20;94.30;;;;;;5052374;28;20212;-50
2020/12/27 11:38:25;;;;;;;5.10;3.80;;;4.20;93.90;;;;;;5052452;28;20225;-50
2020/12/27 11:40:52;;;;;;;4.90;4.40;;;4.00;93.90;;;;;;5052677;28;20199;-50
2020/12/27 11:43:18;;;;;;;4.88;3.35;;;3.90;93.30;;;;;;5050467;28;20688;-50
2020/12/27 11:45:45;;;;;;;4.80;3.80;;;4.20;93.60;;;;;;5052310;28;20215;-50
2020/12/27 11:48:11;;;;;;;5.22;4.15;;;3.80;93.50;;;;;;5052113;28;20203;-51
2020/12/27 11:50:39;;;;;;;4.28;3.30;;;4.00;93.10;;;;;;5052281;28;20203;-51
2020/12/27 11:53:06;;;;;;;7.25;5.38;;;4.10;93.60;;;;;;5052333;28;20265;-50
2020/12/27 11:55:32;;;;;;;7.70;3.55;;;4.30;93.40;;;;;;5052347;28;20227;-51
2020/12/27 11:57:59;;;;;;;4.55;3.55;;;4.30;93.00;;;;;;5052442;28;20226;-51
2020/12/27 12:00:26;;;;;;;3.90;3.50;;;4.10;93.10;;;;;;5052331;28;20192;-50
2020/12/27 12:02:52;;;;;;;9.50;3.70;;;4.30;92.90;;;;;;5052006;28;20619;-51
2020/12/27 12:05:19;;;;;;;4.63;3.63;;;4.10;92.30;;;;;;5052911;28;20192;-51
2020/12/27 12:07:46;;;;;;;5.20;4.10;;;4.20;92.40;;;;;;5052329;28;20580;-51
2020/12/27 12:10:13;;;;;;;11.68;5.30;;;4.20;92.20;;;;;;5053898;28;20317;-50
2020/12/27 12:12:39;;;;;;;3.72;3.20;;;4.20;92.00;;;;;;5057236;28;20230;-50
2020/12/27 12:15:06;;;;;;;9.02;4.47;;;4.30;91.50;;;;;;5056305;28;20202;-50
2020/12/27 12:17:33;;;;;;;5.43;4.25;;;4.10;92.10;;;;;;5053361;28;20265;-50
2020/12/27 12:20:00;;;;;;;3.67;3.05;;;4.10;91.60;;;;;;5053774;28;20192;-50
2020/12/27 12:22:26;;;;;;;5.55;4.13;;;4.40;91.60;;;;;;5052904;28;20306;-52
2020/12/27 12:24:54;;;;;;;4.93;3.10;;;4.20;91.70;;;;;;5052917;28;20199;-50
2020/12/27 12:27:20;;;;;;;4.20;2.95;;;4.00;91.20;;;;;;5051644;28;20560;-51
2020/12/27 12:29:47;;;;;;;3.60;2.65;;;4.30;91.00;;;;;;5051462;28;20220;-51
2020/12/27 12:32:13;;;;;;;3.25;2.78;;;4.10;90.80;;;;;;5051579;28;20199;-49
2020/12/27 12:34:40;;;;;;;3.63;2.78;;;4.10;90.20;;;;;;5051418;28;20192;-49
2020/12/27 12:37:07;;;;;;;4.15;3.13;;;4.40;90.40;;;;;;5051718;28;20199;-49
2020/12/27 12:39:33;;;;;;;3.35;2.40;;;4.50;90.70;;;;;;5051551;28;20188;-49
2020/12/27 12:42:01;;;;;;;3.75;3.03;;;4.20;90.60;;;;;;5051141;28;20196;-49
2020/12/27 12:44:27;;;;;;;3.35;2.70;;;4.30;90.60;;;;;;5050984;28;20196;-49
2020/12/27 12:46:54;;;;;;;3.22;2.10;;;4.40;90.60;;;;;;5051117;28;20216;-51
2020/12/27 12:49:20;;;;;;;4.65;3.00;;;4.60;90.80;;;;;;5051525;28;20211;-50
2020/12/27 12:51:47;;;;;;;3.15;2.85;;;4.40;90.40;;;;;;5051989;28;20215;-50
2020/12/27 12:54:13;;;;;;;3.30;2.40;;;4.60;90.50;;;;;;5051236;28;20215;-50
2020/12/27 12:56:40;;;;;;;5.07;3.42;;;4.30;90.80;;;;;;5051515;28;20279;-50
2020/12/27 12:59:07;;;;;;;6.72;3.13;;;4.60;90.80;;;;;;5051499;28;20208;-49
2020/12/27 13:01:34;;;;;;;2.55;2.03;;;4.20;90.50;;;;;;5052404;28;20238;-50
2020/12/27 13:04:00;;;;;;;3.13;2.40;;;3.80;90.00;;;;;;5051801;28;20208;-49
2020/12/27 13:06:27;;;;;;;4.35;2.85;;;4.20;90.60;;;;;;5051334;28;20211;-50
2020/12/27 13:08:53;;;;;;;3.58;2.75;;;4.20;90.30;;;;;;5051872;28;20211;-49
2020/12/27 13:11:20;;;;;;;3.15;2.30;;;4.20;90.30;;;;;;5051813;28;20574;-50
2020/12/27 13:13:47;;;;;;;3.13;2.25;;;4.30;90.50;;;;;;5051209;28;20306;-50
2020/12/27 13:16:14;;;;;;;4.55;2.80;;;4.30;90.00;;;;;;5051430;28;20184;-49
2020/12/27 13:18:42;;;;;;;2.60;2.00;;;4.20;89.30;;;;;;5051361;28;20196;-50
2020/12/27 13:21:08;;;;;;;3.53;2.20;;;4.20;89.40;;;;;;5049521;28;20210;-51